Accueil
METAR-TAF:

METAR-TAF

Aéroports :

Aurora Municipal Airport (Al Potter Field)

Aurora, Nebraska, États-Unis

latitude: 40-53-38N, longitude: 097-59-40W, altitude: 550 m

Observation

Le bulletin a été fait il y a 40 minutes, à 00:35 UTC
Vent 4 kt de est/sud-est
Température 24°C
Humidité 74%
Pression 1020 hPa
Visibilité: 16.1 km
Ciel clair

METAR: KAUH 220035Z AUTO 12004KT 10SM CLR 24/19 A3012 RMK AO2 T02400189

Heure: 20:15 (01:15 UTC)


TAF: absent

Observations et prévisions météorologiques de plus de 4000 aéroports (messages METAR et TAF).

Les stations disponibles sont représentées par des disques jaunes et rouges sur la carte.

Passer la souris dessus pour voir le nom de la station.

Cliquer dessus pour voir les observations et prévisions météorologiques.

Pour changer de carte: cliquez sur les boutons verts avec une croix noire pour zoomer, sur le bouton vert avec un tiret pour effectuer un zoom arrière, ou sur les flèches vertes pour les cartes adjacentes.


METAR-TAF: